sensor_id;sensor_type;location;lat;lon;timestamp;pressure;altitude;pressure_sealevel;temperature;humidity
57250;BME280;43102;52.014;-0.680;2023-07-22T00:00:00;100507;;;17.31;58.68
57250;BME280;43102;52.014;-0.680;2023-07-22T00:01:00;100507;;;17.31;58.68
57250;BME280;43102;52.014;-0.680;2023-07-22T00:02:00;100507;;;17.31;58.68
57250;BME280;43102;52.014;-0.680;2023-07-22T00:03:00;100507;;;17.31;58.68
57250;BME280;43102;52.014;-0.680;2023-07-22T00:04:00;100507;;;17.31;58.68
57250;BME280;43102;52.014;-0.680;2023-07-22T00:05:00;100508;;;17.25;59.55
57250;BME280;43102;52.014;-0.680;2023-07-22T00:06:04;100508;;;17.25;59.55
57250;BME280;43102;52.014;-0.680;2023-07-22T00:07:00;100508;;;17.25;59.55
57250;BME280;43102;52.014;-0.680;2023-07-22T00:08:00;100508;;;17.25;59.55
57250;BME280;43102;52.014;-0.680;2023-07-22T00:09:00;100508;;;17.25;59.55
57250;BME280;43102;52.014;-0.680;2023-07-22T00:10:00;100507;;;17.21;59.55
57250;BME280;43102;52.014;-0.680;2023-07-22T00:11:00;100507;;;17.21;59.55
57250;BME280;43102;52.014;-0.680;2023-07-22T00:12:00;100507;;;17.21;59.55
57250;BME280;43102;52.014;-0.680;2023-07-22T00:13:00;100507;;;17.21;59.55
57250;BME280;43102;52.014;-0.680;2023-07-22T00:14:00;100507;;;17.21;59.55
57250;BME280;43102;52.014;-0.680;2023-07-22T00:15:00;100503;;;17.13;59.68
57250;BME280;43102;52.014;-0.680;2023-07-22T00:16:00;100503;;;17.13;59.68
57250;BME280;43102;52.014;-0.680;2023-07-22T00:17:00;100503;;;17.13;59.68
57250;BME280;43102;52.014;-0.680;2023-07-22T00:18:00;100503;;;17.13;59.68
57250;BME280;43102;52.014;-0.680;2023-07-22T00:19:00;100503;;;17.13;59.68
57250;BME280;43102;52.014;-0.680;2023-07-22T00:20:00;100498;;;17.10;59.81
57250;BME280;43102;52.014;-0.680;2023-07-22T00:21:00;100498;;;17.10;59.81
57250;BME280;43102;52.014;-0.680;2023-07-22T00:22:00;100498;;;17.10;59.81
57250;BME280;43102;52.014;-0.680;2023-07-22T00:23:00;100498;;;17.10;59.81
57250;BME280;43102;52.014;-0.680;2023-07-22T00:24:00;100498;;;17.10;59.81
57250;BME280;43102;52.014;-0.680;2023-07-22T00:25:00;100491;;;17.03;59.98
57250;BME280;43102;52.014;-0.680;2023-07-22T00:26:00;100491;;;17.03;59.98
57250;BME280;43102;52.014;-0.680;2023-07-22T00:27:00;100491;;;17.03;59.98
57250;BME280;43102;52.014;-0.680;2023-07-22T00:28:00;100491;;;17.03;59.98
57250;BME280;43102;52.014;-0.680;2023-07-22T00:29:00;100491;;;17.03;59.98
57250;BME280;43102;52.014;-0.680;2023-07-22T00:30:00;100496;;;17.02;60.29
57250;BME280;43102;52.014;-0.680;2023-07-22T00:31:01;100496;;;17.02;60.29
57250;BME280;43102;52.014;-0.680;2023-07-22T00:32:00;100496;;;17.02;60.29
57250;BME280;43102;52.014;-0.680;2023-07-22T00:33:00;100496;;;17.02;60.29
57250;BME280;43102;52.014;-0.680;2023-07-22T00:34:00;100496;;;17.02;60.29
57250;BME280;43102;52.014;-0.680;2023-07-22T00:35:00;100490;;;17.00;60.66
57250;BME280;43102;52.014;-0.680;2023-07-22T00:36:00;100490;;;17.00;60.66
57250;BME280;43102;52.014;-0.680;2023-07-22T00:37:00;100490;;;17.00;60.66
57250;BME280;43102;52.014;-0.680;2023-07-22T00:38:00;100490;;;17.00;60.66
57250;BME280;43102;52.014;-0.680;2023-07-22T00:39:00;100490;;;17.00;60.66
57250;BME280;43102;52.014;-0.680;2023-07-22T00:40:01;100484;;;16.96;60.60
57250;BME280;43102;52.014;-0.680;2023-07-22T00:41:00;100484;;;16.96;60.60
57250;BME280;43102;52.014;-0.680;2023-07-22T00:42:00;100484;;;16.96;60.60
57250;BME280;43102;52.014;-0.680;2023-07-22T00:43:00;100484;;;16.96;60.60
57250;BME280;43102;52.014;-0.680;2023-07-22T00:44:00;100484;;;16.96;60.60
57250;BME280;43102;52.014;-0.680;2023-07-22T00:45:00;100478;;;16.96;60.54
57250;BME280;43102;52.014;-0.680;2023-07-22T00:46:00;100478;;;16.96;60.54
57250;BME280;43102;52.014;-0.680;2023-07-22T00:47:00;100478;;;16.96;60.54
57250;BME280;43102;52.014;-0.680;2023-07-22T00:48:00;100478;;;16.96;60.54
57250;BME280;43102;52.014;-0.680;2023-07-22T00:49:00;100478;;;16.96;60.54
57250;BME280;43102;52.014;-0.680;2023-07-22T00:50:01;100479;;;16.94;60.65
57250;BME280;43102;52.014;-0.680;2023-07-22T00:51:00;100479;;;16.94;60.65
57250;BME280;43102;52.014;-0.680;2023-07-22T00:52:00;100479;;;16.94;60.65
57250;BME280;43102;52.014;-0.680;2023-07-22T00:53:00;100479;;;16.94;60.65
57250;BME280;43102;52.014;-0.680;2023-07-22T00:54:00;100479;;;16.94;60.65
57250;BME280;43102;52.014;-0.680;2023-07-22T00:55:00;100478;;;16.87;61.22
57250;BME280;43102;52.014;-0.680;2023-07-22T00:56:00;100478;;;16.87;61.22
57250;BME280;43102;52.014;-0.680;2023-07-22T00:57:00;100478;;;16.87;61.22
57250;BME280;43102;52.014;-0.680;2023-07-22T00:58:00;100478;;;16.87;61.22
57250;BME280;43102;52.014;-0.680;2023-07-22T00:59:00;100478;;;16.87;61.22
57250;BME280;43102;52.014;-0.680;2023-07-22T01:00:00;100469;;;16.84;61.64
57250;BME280;43102;52.014;-0.680;2023-07-22T01:01:00;100469;;;16.84;61.64
57250;BME280;43102;52.014;-0.680;2023-07-22T01:02:00;100469;;;16.84;61.64
57250;BME280;43102;52.014;-0.680;2023-07-22T01:03:00;100469;;;16.84;61.64
57250;BME280;43102;52.014;-0.680;2023-07-22T01:04:00;100469;;;16.84;61.64
57250;BME280;43102;52.014;-0.680;2023-07-22T01:05:00;100459;;;16.73;62.42
57250;BME280;43102;52.014;-0.680;2023-07-22T01:06:00;100459;;;16.73;62.42
57250;BME280;43102;52.014;-0.680;2023-07-22T01:07:00;100459;;;16.73;62.42
57250;BME280;43102;52.014;-0.680;2023-07-22T01:08:00;100459;;;16.73;62.42
57250;BME280;43102;52.014;-0.680;2023-07-22T01:09:00;100459;;;16.73;62.42
57250;BME280;43102;52.014;-0.680;2023-07-22T01:10:00;100453;;;16.68;62.72
57250;BME280;43102;52.014;-0.680;2023-07-22T01:11:00;100453;;;16.68;62.72
57250;BME280;43102;52.014;-0.680;2023-07-22T01:12:00;100453;;;16.68;62.72
57250;BME280;43102;52.014;-0.680;2023-07-22T01:13:00;100453;;;16.68;62.72
57250;BME280;43102;52.014;-0.680;2023-07-22T01:14:00;100453;;;16.68;62.72
57250;BME280;43102;52.014;-0.680;2023-07-22T01:15:00;100443;;;16.64;62.55
57250;BME280;43102;52.014;-0.680;2023-07-22T01:16:00;100443;;;16.64;62.55
57250;BME280;43102;52.014;-0.680;2023-07-22T01:17:01;100443;;;16.64;62.55
57250;BME280;43102;52.014;-0.680;2023-07-22T01:18:00;100443;;;16.64;62.55
57250;BME280;43102;52.014;-0.680;2023-07-22T01:19:00;100443;;;16.64;62.55
57250;BME280;43102;52.014;-0.680;2023-07-22T01:20:00;100437;;;16.60;62.73
57250;BME280;43102;52.014;-0.680;2023-07-22T01:21:00;100437;;;16.60;62.73
57250;BME280;43102;52.014;-0.680;2023-07-22T01:22:00;100437;;;16.60;62.73
57250;BME280;43102;52.014;-0.680;2023-07-22T01:23:00;100437;;;16.60;62.73
57250;BME280;43102;52.014;-0.680;2023-07-22T01:24:00;100437;;;16.60;62.73
57250;BME280;43102;52.014;-0.680;2023-07-22T01:25:00;100424;;;16.52;62.89
57250;BME280;43102;52.014;-0.680;2023-07-22T01:26:00;100424;;;16.52;62.89
57250;BME280;43102;52.014;-0.680;2023-07-22T01:27:00;100424;;;16.52;62.89
57250;BME280;43102;52.014;-0.680;2023-07-22T01:28:00;100424;;;16.52;62.89
57250;BME280;43102;52.014;-0.680;2023-07-22T01:29:02;100424;;;16.52;62.89
57250;BME280;43102;52.014;-0.680;2023-07-22T01:30:00;100416;;;16.43;62.90
57250;BME280;43102;52.014;-0.680;2023-07-22T01:31:00;100416;;;16.43;62.90
57250;BME280;43102;52.014;-0.680;2023-07-22T01:32:00;100416;;;16.43;62.90
57250;BME280;43102;52.014;-0.680;2023-07-22T01:33:00;100416;;;16.43;62.90
57250;BME280;43102;52.014;-0.680;2023-07-22T01:34:00;100416;;;16.43;62.90
57250;BME280;43102;52.014;-0.680;2023-07-22T01:35:00;100414;;;16.36;63.45
57250;BME280;43102;52.014;-0.680;2023-07-22T01:36:00;100414;;;16.36;63.45
57250;BME280;43102;52.014;-0.680;2023-07-22T01:37:00;100414;;;16.36;63.45
57250;BME280;43102;52.014;-0.680;2023-07-22T01:38:00;100414;;;16.36;63.45
57250;BME280;43102;52.014;-0.680;2023-07-22T01:39:00;100414;;;16.36;63.45
57250;BME280;43102;52.014;-0.680;2023-07-22T01:40:00;100413;;;16.34;63.10
57250;BME280;43102;52.014;-0.680;2023-07-22T01:41:00;100413;;;16.34;63.10
57250;BME280;43102;52.014;-0.680;2023-07-22T01:42:00;100413;;;16.34;63.10
57250;BME280;43102;52.014;-0.680;2023-07-22T01:43:00;100413;;;16.34;63.10
57250;BME280;43102;52.014;-0.680;2023-07-22T01:44:00;100413;;;16.34;63.10
57250;BME280;43102;52.014;-0.680;2023-07-22T01:45:00;100409;;;16.31;63.03
57250;BME280;43102;52.014;-0.680;2023-07-22T01:46:00;100409;;;16.31;63.03
57250;BME280;43102;52.014;-0.680;2023-07-22T01:47:01;100409;;;16.31;63.03
57250;BME280;43102;52.014;-0.680;2023-07-22T01:48:00;100409;;;16.31;63.03
57250;BME280;43102;52.014;-0.680;2023-07-22T01:49:00;100409;;;16.31;63.03
57250;BME280;43102;52.014;-0.680;2023-07-22T01:50:00;100405;;;16.28;62.93
57250;BME280;43102;52.014;-0.680;2023-07-22T01:51:00;100405;;;16.28;62.93
57250;BME280;43102;52.014;-0.680;2023-07-22T01:52:00;100405;;;16.28;62.93
57250;BME280;43102;52.014;-0.680;2023-07-22T01:53:00;100405;;;16.28;62.93
57250;BME280;43102;52.014;-0.680;2023-07-22T01:54:00;100405;;;16.28;62.93
57250;BME280;43102;52.014;-0.680;2023-07-22T01:55:00;100406;;;16.22;63.04
57250;BME280;43102;52.014;-0.680;2023-07-22T01:56:00;100406;;;16.22;63.04
57250;BME280;43102;52.014;-0.680;2023-07-22T01:57:00;100406;;;16.22;63.04
57250;BME280;43102;52.014;-0.680;2023-07-22T01:58:00;100406;;;16.22;63.04
57250;BME280;43102;52.014;-0.680;2023-07-22T01:59:00;100406;;;16.22;63.04
57250;BME280;43102;52.014;-0.680;2023-07-22T02:00:00;100411;;;16.16;62.86
57250;BME280;43102;52.014;-0.680;2023-07-22T02:01:00;100411;;;16.16;62.86
57250;BME280;43102;52.014;-0.680;2023-07-22T02:02:00;100411;;;16.16;62.86
57250;BME280;43102;52.014;-0.680;2023-07-22T02:03:00;100411;;;16.16;62.86
57250;BME280;43102;52.014;-0.680;2023-07-22T02:04:00;100411;;;16.16;62.86
57250;BME280;43102;52.014;-0.680;2023-07-22T02:05:00;100404;;;16.14;63.42
57250;BME280;43102;52.014;-0.680;2023-07-22T02:06:02;100404;;;16.14;63.42
57250;BME280;43102;52.014;-0.680;2023-07-22T02:07:00;100404;;;16.14;63.42
57250;BME280;43102;52.014;-0.680;2023-07-22T02:08:00;100404;;;16.14;63.42
57250;BME280;43102;52.014;-0.680;2023-07-22T02:09:00;100404;;;16.14;63.42
57250;BME280;43102;52.014;-0.680;2023-07-22T02:10:00;100402;;;16.14;63.18
57250;BME280;43102;52.014;-0.680;2023-07-22T02:11:01;100402;;;16.14;63.18
57250;BME280;43102;52.014;-0.680;2023-07-22T02:12:00;100402;;;16.14;63.18
57250;BME280;43102;52.014;-0.680;2023-07-22T02:13:00;100402;;;16.14;63.18
57250;BME280;43102;52.014;-0.680;2023-07-22T02:14:00;100402;;;16.14;63.18
57250;BME280;43102;52.014;-0.680;2023-07-22T02:15:00;100399;;;16.09;62.96
57250;BME280;43102;52.014;-0.680;2023-07-22T02:16:00;100399;;;16.09;62.96
57250;BME280;43102;52.014;-0.680;2023-07-22T02:17:00;100399;;;16.09;62.96
57250;BME280;43102;52.014;-0.680;2023-07-22T02:18:00;100399;;;16.09;62.96
57250;BME280;43102;52.014;-0.680;2023-07-22T02:19:00;100399;;;16.09;62.96
57250;BME280;43102;52.014;-0.680;2023-07-22T02:20:00;100400;;;16.10;62.96
57250;BME280;43102;52.014;-0.680;2023-07-22T02:21:00;100400;;;16.10;62.96
57250;BME280;43102;52.014;-0.680;2023-07-22T02:22:00;100400;;;16.10;62.96
57250;BME280;43102;52.014;-0.680;2023-07-22T02:23:00;100400;;;16.10;62.96
57250;BME280;43102;52.014;-0.680;2023-07-22T02:24:00;100400;;;16.10;62.96
57250;BME280;43102;52.014;-0.680;2023-07-22T02:25:00;100391;;;16.07;63.14
57250;BME280;43102;52.014;-0.680;2023-07-22T02:26:00;100391;;;16.07;63.14
57250;BME280;43102;52.014;-0.680;2023-07-22T02:27:00;100391;;;16.07;63.14
57250;BME280;43102;52.014;-0.680;2023-07-22T02:28:00;100391;;;16.07;63.14
57250;BME280;43102;52.014;-0.680;2023-07-22T02:29:00;100391;;;16.07;63.14
57250;BME280;43102;52.014;-0.680;2023-07-22T02:30:00;100389;;;16.05;63.10
57250;BME280;43102;52.014;-0.680;2023-07-22T02:31:01;100389;;;16.05;63.10
57250;BME280;43102;52.014;-0.680;2023-07-22T02:32:00;100389;;;16.05;63.10
57250;BME280;43102;52.014;-0.680;2023-07-22T02:33:01;100389;;;16.05;63.10
57250;BME280;43102;52.014;-0.680;2023-07-22T02:34:00;100389;;;16.05;63.10
57250;BME280;43102;52.014;-0.680;2023-07-22T02:35:00;100384;;;16.04;63.50
57250;BME280;43102;52.014;-0.680;2023-07-22T02:36:00;100384;;;16.04;63.50
57250;BME280;43102;52.014;-0.680;2023-07-22T02:37:00;100384;;;16.04;63.50
57250;BME280;43102;52.014;-0.680;2023-07-22T02:38:00;100384;;;16.04;63.50
57250;BME280;43102;52.014;-0.680;2023-07-22T02:39:00;100384;;;16.04;63.50
57250;BME280;43102;52.014;-0.680;2023-07-22T02:40:00;100374;;;15.97;63.38
57250;BME280;43102;52.014;-0.680;2023-07-22T02:41:01;100374;;;15.97;63.38
57250;BME280;43102;52.014;-0.680;2023-07-22T02:42:00;100374;;;15.97;63.38
57250;BME280;43102;52.014;-0.680;2023-07-22T02:43:00;100374;;;15.97;63.38
57250;BME280;43102;52.014;-0.680;2023-07-22T02:44:00;100374;;;15.97;63.38
57250;BME280;43102;52.014;-0.680;2023-07-22T02:45:00;100371;;;15.91;63.94
57250;BME280;43102;52.014;-0.680;2023-07-22T02:46:01;100371;;;15.91;63.94
57250;BME280;43102;52.014;-0.680;2023-07-22T02:47:00;100371;;;15.91;63.94
57250;BME280;43102;52.014;-0.680;2023-07-22T02:48:00;100371;;;15.91;63.94
57250;BME280;43102;52.014;-0.680;2023-07-22T02:49:00;100371;;;15.91;63.94
57250;BME280;43102;52.014;-0.680;2023-07-22T02:50:00;100373;;;15.91;63.32
57250;BME280;43102;52.014;-0.680;2023-07-22T02:51:01;100373;;;15.91;63.32
57250;BME280;43102;52.014;-0.680;2023-07-22T02:52:00;100373;;;15.91;63.32
57250;BME280;43102;52.014;-0.680;2023-07-22T02:53:00;100373;;;15.91;63.32
57250;BME280;43102;52.014;-0.680;2023-07-22T02:54:00;100373;;;15.91;63.32
57250;BME280;43102;52.014;-0.680;2023-07-22T02:55:08;100365;;;15.90;63.39
57250;BME280;43102;52.014;-0.680;2023-07-22T02:56:00;100365;;;15.90;63.39
57250;BME280;43102;52.014;-0.680;2023-07-22T02:57:00;100365;;;15.90;63.39
57250;BME280;43102;52.014;-0.680;2023-07-22T02:58:00;100365;;;15.90;63.39
57250;BME280;43102;52.014;-0.680;2023-07-22T02:59:00;100365;;;15.90;63.39
57250;BME280;43102;52.014;-0.680;2023-07-22T03:00:00;100366;;;15.89;63.61
57250;BME280;43102;52.014;-0.680;2023-07-22T03:01:00;100366;;;15.89;63.61
57250;BME280;43102;52.014;-0.680;2023-07-22T03:02:00;100366;;;15.89;63.61
57250;BME280;43102;52.014;-0.680;2023-07-22T03:03:00;100366;;;15.89;63.61
57250;BME280;43102;52.014;-0.680;2023-07-22T03:04:00;100366;;;15.89;63.61
57250;BME280;43102;52.014;-0.680;2023-07-22T03:05:00;100369;;;15.88;64.10
57250;BME280;43102;52.014;-0.680;2023-07-22T03:06:00;100369;;;15.88;64.10
57250;BME280;43102;52.014;-0.680;2023-07-22T03:07:00;100369;;;15.88;64.10
57250;BME280;43102;52.014;-0.680;2023-07-22T03:08:00;100369;;;15.88;64.10
57250;BME280;43102;52.014;-0.680;2023-07-22T03:09:00;100369;;;15.88;64.10
57250;BME280;43102;52.014;-0.680;2023-07-22T03:10:00;100359;;;15.87;63.92
57250;BME280;43102;52.014;-0.680;2023-07-22T03:11:00;100359;;;15.87;63.92
57250;BME280;43102;52.014;-0.680;2023-07-22T03:12:00;100359;;;15.87;63.92
57250;BME280;43102;52.014;-0.680;2023-07-22T03:13:00;100359;;;15.87;63.92
57250;BME280;43102;52.014;-0.680;2023-07-22T03:14:00;100359;;;15.87;63.92
57250;BME280;43102;52.014;-0.680;2023-07-22T03:15:00;100356;;;15.83;64.23
57250;BME280;43102;52.014;-0.680;2023-07-22T03:16:00;100356;;;15.83;64.23
57250;BME280;43102;52.014;-0.680;2023-07-22T03:17:00;100356;;;15.83;64.23
57250;BME280;43102;52.014;-0.680;2023-07-22T03:18:00;100356;;;15.83;64.23
57250;BME280;43102;52.014;-0.680;2023-07-22T03:19:00;100356;;;15.83;64.23
57250;BME280;43102;52.014;-0.680;2023-07-22T03:20:00;100357;;;15.83;64.41
57250;BME280;43102;52.014;-0.680;2023-07-22T03:21:00;100357;;;15.83;64.41
57250;BME280;43102;52.014;-0.680;2023-07-22T03:22:00;100357;;;15.83;64.41
57250;BME280;43102;52.014;-0.680;2023-07-22T03:23:00;100357;;;15.83;64.41
57250;BME280;43102;52.014;-0.680;2023-07-22T03:24:00;100357;;;15.83;64.41
57250;BME280;43102;52.014;-0.680;2023-07-22T03:25:00;100356;;;15.80;64.37
57250;BME280;43102;52.014;-0.680;2023-07-22T03:26:00;100356;;;15.80;64.37
57250;BME280;43102;52.014;-0.680;2023-07-22T03:27:00;100356;;;15.80;64.37
57250;BME280;43102;52.014;-0.680;2023-07-22T03:28:02;100356;;;15.80;64.37
57250;BME280;43102;52.014;-0.680;2023-07-22T03:29:00;100356;;;15.80;64.37
57250;BME280;43102;52.014;-0.680;2023-07-22T03:30:00;100353;;;15.81;64.59
57250;BME280;43102;52.014;-0.680;2023-07-22T03:31:00;100353;;;15.81;64.59
57250;BME280;43102;52.014;-0.680;2023-07-22T03:32:00;100353;;;15.81;64.59
57250;BME280;43102;52.014;-0.680;2023-07-22T03:33:00;100353;;;15.81;64.59
57250;BME280;43102;52.014;-0.680;2023-07-22T03:34:00;100353;;;15.81;64.59
57250;BME280;43102;52.014;-0.680;2023-07-22T03:35:00;100349;;;15.78;65.37
57250;BME280;43102;52.014;-0.680;2023-07-22T03:36:00;100349;;;15.78;65.37
57250;BME280;43102;52.014;-0.680;2023-07-22T03:37:00;100349;;;15.78;65.37
57250;BME280;43102;52.014;-0.680;2023-07-22T03:38:00;100349;;;15.78;65.37
57250;BME280;43102;52.014;-0.680;2023-07-22T03:39:00;100349;;;15.78;65.37
57250;BME280;43102;52.014;-0.680;2023-07-22T03:40:00;100351;;;15.78;65.24
57250;BME280;43102;52.014;-0.680;2023-07-22T03:41:01;100351;;;15.78;65.24
57250;BME280;43102;52.014;-0.680;2023-07-22T03:42:00;100351;;;15.78;65.24
57250;BME280;43102;52.014;-0.680;2023-07-22T03:43:00;100351;;;15.78;65.24
57250;BME280;43102;52.014;-0.680;2023-07-22T03:44:00;100351;;;15.78;65.24
57250;BME280;43102;52.014;-0.680;2023-07-22T03:45:00;100351;;;15.77;65.56
57250;BME280;43102;52.014;-0.680;2023-07-22T03:46:00;100351;;;15.77;65.56
57250;BME280;43102;52.014;-0.680;2023-07-22T03:47:00;100351;;;15.77;65.56
57250;BME280;43102;52.014;-0.680;2023-07-22T03:48:00;100351;;;15.77;65.56
57250;BME280;43102;52.014;-0.680;2023-07-22T03:49:00;100351;;;15.77;65.56
57250;BME280;43102;52.014;-0.680;2023-07-22T03:50:00;100344;;;15.75;65.60
57250;BME280;43102;52.014;-0.680;2023-07-22T03:51:00;100344;;;15.75;65.60
57250;BME280;43102;52.014;-0.680;2023-07-22T03:52:00;100344;;;15.75;65.60
57250;BME280;43102;52.014;-0.680;2023-07-22T03:53:00;100344;;;15.75;65.60
57250;BME280;43102;52.014;-0.680;2023-07-22T03:54:00;100344;;;15.75;65.60
57250;BME280;43102;52.014;-0.680;2023-07-22T03:55:00;100336;;;15.74;65.60
57250;BME280;43102;52.014;-0.680;2023-07-22T03:56:00;100336;;;15.74;65.60
57250;BME280;43102;52.014;-0.680;2023-07-22T03:57:00;100336;;;15.74;65.60
57250;BME280;43102;52.014;-0.680;2023-07-22T03:58:00;100336;;;15.74;65.60
57250;BME280;43102;52.014;-0.680;2023-07-22T03:59:00;100336;;;15.74;65.60
57250;BME280;43102;52.014;-0.680;2023-07-22T04:00:00;100329;;;15.72;65.62
57250;BME280;43102;52.014;-0.680;2023-07-22T04:01:00;100329;;;15.72;65.62
57250;BME280;43102;52.014;-0.680;2023-07-22T04:02:00;100329;;;15.72;65.62
57250;BME280;43102;52.014;-0.680;2023-07-22T04:03:00;100329;;;15.72;65.62
57250;BME280;43102;52.014;-0.680;2023-07-22T04:04:00;100329;;;15.72;65.62
57250;BME280;43102;52.014;-0.680;2023-07-22T04:05:00;100328;;;15.72;66.46
57250;BME280;43102;52.014;-0.680;2023-07-22T04:06:00;100328;;;15.72;66.46
57250;BME280;43102;52.014;-0.680;2023-07-22T04:07:00;100328;;;15.72;66.46
57250;BME280;43102;52.014;-0.680;2023-07-22T04:08:00;100328;;;15.72;66.46
57250;BME280;43102;52.014;-0.680;2023-07-22T04:09:00;100328;;;15.72;66.46
57250;BME280;43102;52.014;-0.680;2023-07-22T04:10:00;100328;;;15.70;66.50
57250;BME280;43102;52.014;-0.680;2023-07-22T04:11:00;100328;;;15.70;66.50
57250;BME280;43102;52.014;-0.680;2023-07-22T04:12:00;100328;;;15.70;66.50
57250;BME280;43102;52.014;-0.680;2023-07-22T04:13:00;100328;;;15.70;66.50
57250;BME280;43102;52.014;-0.680;2023-07-22T04:14:00;100328;;;15.70;66.50
57250;BME280;43102;52.014;-0.680;2023-07-22T04:15:00;100328;;;15.75;66.63
57250;BME280;43102;52.014;-0.680;2023-07-22T04:16:00;100328;;;15.75;66.63
57250;BME280;43102;52.014;-0.680;2023-07-22T04:17:00;100328;;;15.75;66.63
57250;BME280;43102;52.014;-0.680;2023-07-22T04:18:00;100328;;;15.75;66.63
57250;BME280;43102;52.014;-0.680;2023-07-22T04:19:00;100328;;;15.75;66.63
57250;BME280;43102;52.014;-0.680;2023-07-22T04:20:00;100324;;;15.81;66.63
57250;BME280;43102;52.014;-0.680;2023-07-22T04:21:00;100324;;;15.81;66.63
57250;BME280;43102;52.014;-0.680;2023-07-22T04:22:00;100324;;;15.81;66.63
57250;BME280;43102;52.014;-0.680;2023-07-22T04:23:00;100324;;;15.81;66.63
57250;BME280;43102;52.014;-0.680;2023-07-22T04:24:00;100324;;;15.81;66.63
57250;BME280;43102;52.014;-0.680;2023-07-22T04:25:00;100332;;;15.82;66.33
57250;BME280;43102;52.014;-0.680;2023-07-22T04:26:01;100332;;;15.82;66.33
57250;BME280;43102;52.014;-0.680;2023-07-22T04:27:00;100332;;;15.82;66.33
57250;BME280;43102;52.014;-0.680;2023-07-22T04:28:00;100332;;;15.82;66.33
57250;BME280;43102;52.014;-0.680;2023-07-22T04:29:02;100332;;;15.82;66.33
57250;BME280;43102;52.014;-0.680;2023-07-22T04:30:00;100328;;;15.84;66.35
57250;BME280;43102;52.014;-0.680;2023-07-22T04:31:00;100328;;;15.84;66.35
57250;BME280;43102;52.014;-0.680;2023-07-22T04:32:00;100328;;;15.84;66.35
57250;BME280;43102;52.014;-0.680;2023-07-22T04:33:00;100328;;;15.84;66.35
57250;BME280;43102;52.014;-0.680;2023-07-22T04:34:00;100328;;;15.84;66.35
57250;BME280;43102;52.014;-0.680;2023-07-22T04:35:00;100319;;;15.81;67.19
57250;BME280;43102;52.014;-0.680;2023-07-22T04:36:00;100319;;;15.81;67.19
57250;BME280;43102;52.014;-0.680;2023-07-22T04:37:00;100319;;;15.81;67.19
57250;BME280;43102;52.014;-0.680;2023-07-22T04:38:00;100319;;;15.81;67.19
57250;BME280;43102;52.014;-0.680;2023-07-22T04:39:00;100319;;;15.81;67.19
57250;BME280;43102;52.014;-0.680;2023-07-22T04:40:00;100315;;;15.83;66.83
57250;BME280;43102;52.014;-0.680;2023-07-22T04:41:01;100315;;;15.83;66.83
57250;BME280;43102;52.014;-0.680;2023-07-22T04:42:00;100315;;;15.83;66.83
57250;BME280;43102;52.014;-0.680;2023-07-22T04:43:00;100315;;;15.83;66.83
57250;BME280;43102;52.014;-0.680;2023-07-22T04:44:00;100315;;;15.83;66.83
57250;BME280;43102;52.014;-0.680;2023-07-22T04:45:00;100312;;;15.82;66.95
57250;BME280;43102;52.014;-0.680;2023-07-22T04:46:00;100312;;;15.82;66.95
57250;BME280;43102;52.014;-0.680;2023-07-22T04:47:00;100312;;;15.82;66.95
57250;BME280;43102;52.014;-0.680;2023-07-22T04:48:01;100312;;;15.82;66.95
57250;BME280;43102;52.014;-0.680;2023-07-22T04:49:00;100312;;;15.82;66.95
57250;BME280;43102;52.014;-0.680;2023-07-22T04:50:00;100314;;;15.82;66.81
57250;BME280;43102;52.014;-0.680;2023-07-22T04:51:00;100314;;;15.82;66.81
57250;BME280;43102;52.014;-0.680;2023-07-22T04:52:00;100314;;;15.82;66.81
57250;BME280;43102;52.014;-0.680;2023-07-22T04:53:00;100314;;;15.82;66.81
57250;BME280;43102;52.014;-0.680;2023-07-22T04:54:00;100314;;;15.82;66.81
57250;BME280;43102;52.014;-0.680;2023-07-22T04:55:00;100304;;;15.84;67.04
57250;BME280;43102;52.014;-0.680;2023-07-22T04:56:00;100304;;;15.84;67.04
57250;BME280;43102;52.014;-0.680;2023-07-22T04:57:00;100304;;;15.84;67.04
57250;BME280;43102;52.014;-0.680;2023-07-22T04:58:00;100304;;;15.84;67.04
57250;BME280;43102;52.014;-0.680;2023-07-22T04:59:00;100304;;;15.84;67.04
57250;BME280;43102;52.014;-0.680;2023-07-22T05:00:00;100304;;;15.92;66.96
57250;BME280;43102;52.014;-0.680;2023-07-22T05:01:00;100304;;;15.92;66.96
57250;BME280;43102;52.014;-0.680;2023-07-22T05:02:00;100304;;;15.92;66.96
57250;BME280;43102;52.014;-0.680;2023-07-22T05:03:00;100304;;;15.92;66.96
57250;BME280;43102;52.014;-0.680;2023-07-22T05:04:00;100304;;;15.92;66.96
57250;BME280;43102;52.014;-0.680;2023-07-22T05:05:00;100308;;;15.95;67.87
57250;BME280;43102;52.014;-0.680;2023-07-22T05:06:00;100308;;;15.95;67.87
57250;BME280;43102;52.014;-0.680;2023-07-22T05:07:00;100308;;;15.95;67.87
57250;BME280;43102;52.014;-0.680;2023-07-22T05:08:00;100308;;;15.95;67.87
57250;BME280;43102;52.014;-0.680;2023-07-22T05:09:00;100308;;;15.95;67.87
57250;BME280;43102;52.014;-0.680;2023-07-22T05:10:00;100302;;;15.95;68.24
57250;BME280;43102;52.014;-0.680;2023-07-22T05:11:00;100302;;;15.95;68.24
57250;BME280;43102;52.014;-0.680;2023-07-22T05:12:00;100302;;;15.95;68.24
57250;BME280;43102;52.014;-0.680;2023-07-22T05:13:00;100302;;;15.95;68.24
57250;BME280;43102;52.014;-0.680;2023-07-22T05:14:00;100302;;;15.95;68.24
57250;BME280;43102;52.014;-0.680;2023-07-22T05:15:00;100299;;;15.98;67.28
57250;BME280;43102;52.014;-0.680;2023-07-22T05:16:00;100299;;;15.98;67.28
57250;BME280;43102;52.014;-0.680;2023-07-22T05:17:00;100299;;;15.98;67.28
57250;BME280;43102;52.014;-0.680;2023-07-22T05:18:00;100299;;;15.98;67.28
57250;BME280;43102;52.014;-0.680;2023-07-22T05:19:00;100299;;;15.98;67.28
57250;BME280;43102;52.014;-0.680;2023-07-22T05:20:00;100305;;;15.98;67.79
57250;BME280;43102;52.014;-0.680;2023-07-22T05:21:00;100305;;;15.98;67.79